Time,TemperatureF,DewpointF,PressureIn,WindDirection,WindDirectionDegrees,WindSpeedMPH,WindSpeedGustMPH,Humidity,HourlyPrecipIn,Conditions,Clouds,dailyrainin,SoftwareType,DateUTC
2013-01-09 00:00:00,34.0,27.0,29.69,SSW,213,3.0,8.0,74,0.00,,,0.00,Meteo,2013-01-09 06:00:00,
2013-01-09 00:05:00,34.0,27.0,29.70,SSW,210,6.0,11.0,74,0.00,,,0.00,Meteo,2013-01-09 06:05:00,
2013-01-09 00:10:00,34.0,27.0,29.70,SSW,200,5.0,8.0,74,0.00,,,0.00,Meteo,2013-01-09 06:10:00,
2013-01-09 00:15:00,34.0,27.0,29.70,SSW,194,8.0,14.0,74,0.00,,,0.00,Meteo,2013-01-09 06:15:00,
2013-01-09 00:20:00,34.0,27.0,29.70,SSW,207,7.0,10.0,74,0.00,,,0.00,Meteo,2013-01-09 06:20:00,
2013-01-09 00:25:00,33.0,26.0,29.70,SSW,200,5.0,11.0,74,0.00,,,0.00,Meteo,2013-01-09 06:25:00,
2013-01-09 00:30:00,33.0,26.0,29.70,SSW,202,6.0,8.0,75,0.00,,,0.00,Meteo,2013-01-09 06:30:00,
2013-01-09 00:35:00,33.0,26.0,29.70,SW,220,4.0,6.0,74,0.00,,,0.00,Meteo,2013-01-09 06:35:00,
2013-01-09 00:40:00,33.0,26.0,29.70,SSW,203,4.0,8.0,75,0.00,,,0.00,Meteo,2013-01-09 06:40:00,
2013-01-09 00:45:00,33.0,26.0,29.70,SW,221,3.0,5.0,75,0.00,,,0.00,Meteo,2013-01-09 06:45:00,
2013-01-09 00:50:00,33.0,26.0,29.70,SSW,205,7.0,15.0,74,0.00,,,0.00,Meteo,2013-01-09 06:50:00,
2013-01-09 00:55:00,33.0,26.0,29.70,SSW,205,7.0,14.0,74,0.00,,,0.00,Meteo,2013-01-09 06:55:00,
2013-01-09 01:00:00,33.0,25.0,29.70,SW,215,5.0,13.0,73,0.00,,,0.00,Meteo,2013-01-09 07:00:00,
2013-01-09 01:05:00,33.0,26.0,29.70,SSW,207,6.0,9.0,74,0.00,,,0.00,Meteo,2013-01-09 07:05:00,
2013-01-09 01:10:00,33.0,25.0,29.70,SW,226,3.0,5.0,73,0.00,,,0.00,Meteo,2013-01-09 07:10:00,
2013-01-09 01:15:00,33.0,26.0,29.70,SSW,209,6.0,7.0,74,0.00,,,0.00,Meteo,2013-01-09 07:15:00,
2013-01-09 01:20:00,33.0,25.0,29.70,SSW,205,7.0,11.0,73,0.00,,,0.00,Meteo,2013-01-09 07:20:00,
2013-01-09 01:25:00,33.0,26.0,29.70,SSW,197,4.0,7.0,74,0.00,,,0.00,Meteo,2013-01-09 07:25:00,
2013-01-09 01:30:00,33.0,26.0,29.71,SW,214,4.0,7.0,74,0.00,,,0.00,Meteo,2013-01-09 07:30:00,
2013-01-09 01:35:00,33.0,25.0,29.71,South,184,4.0,8.0,73,0.00,,,0.00,Meteo,2013-01-09 07:35:00,
2013-01-09 01:40:00,33.0,26.0,29.71,SW,229,3.0,6.0,74,0.00,,,0.00,Meteo,2013-01-09 07:40:00,
2013-01-09 01:45:00,33.0,25.0,29.71,SSW,202,6.0,9.0,73,0.00,,,0.00,Meteo,2013-01-09 07:45:00,
2013-01-09 01:50:00,33.0,26.0,29.71,SSW,196,4.0,6.0,74,0.00,,,0.00,Meteo,2013-01-09 07:50:00,
2013-01-09 01:55:00,33.0,25.0,29.71,SSW,209,5.0,6.0,73,0.00,,,0.00,Meteo,2013-01-09 07:55:00,
2013-01-09 02:00:00,33.0,25.0,29.72,SSW,205,5.0,8.0,73,0.00,,,0.00,Meteo,2013-01-09 08:00:00,
2013-01-09 02:06:00,33.0,25.0,29.72,SSW,204,5.0,11.0,73,0.00,,,0.00,Meteo,2013-01-09 08:06:00,
2013-01-09 02:11:00,33.0,25.0,29.72,SSW,197,5.0,8.0,73,0.00,,,0.00,Meteo,2013-01-09 08:11:00,
2013-01-09 02:16:00,33.0,25.0,29.72,SSW,202,5.0,11.0,73,0.00,,,0.00,Meteo,2013-01-09 08:16:00,
2013-01-09 02:21:00,33.0,26.0,29.72,SW,221,4.0,7.0,74,0.00,,,0.00,Meteo,2013-01-09 08:21:00,
2013-01-09 02:26:00,33.0,26.0,29.72,SW,220,2.0,4.0,74,0.00,,,0.00,Meteo,2013-01-09 08:26:00,
2013-01-09 02:31:00,33.0,26.0,29.72,SSW,199,7.0,10.0,74,0.00,,,0.00,Meteo,2013-01-09 08:31:00,
2013-01-09 02:36:00,33.0,26.0,29.71,SSW,210,7.0,11.0,74,0.00,,,0.00,Meteo,2013-01-09 08:36:00,
2013-01-09 02:41:00,33.0,26.0,29.71,SSW,199,5.0,7.0,74,0.00,,,0.00,Meteo,2013-01-09 08:41:00,
2013-01-09 02:46:00,33.0,26.0,29.71,SSW,194,5.0,10.0,74,0.00,,,0.00,Meteo,2013-01-09 08:46:00,
2013-01-09 02:51:00,33.0,26.0,29.71,SW,220,7.0,12.0,74,0.00,,,0.00,Meteo,2013-01-09 08:51:00,
2013-01-09 02:56:00,33.0,26.0,29.71,SSW,210,3.0,6.0,74,0.00,,,0.00,Meteo,2013-01-09 08:56:00,
2013-01-09 03:01:00,33.0,26.0,29.72,SW,214,5.0,7.0,74,0.00,,,0.00,Meteo,2013-01-09 09:01:00,
2013-01-09 03:06:00,33.0,26.0,29.72,SW,218,6.0,9.0,74,0.00,,,0.00,Meteo,2013-01-09 09:06:00,
2013-01-09 03:11:00,32.0,25.0,29.72,SSW,205,5.0,9.0,74,0.00,,,0.00,Meteo,2013-01-09 09:11:00,
2013-01-09 03:16:00,32.0,25.0,29.72,SSW,205,5.0,10.0,74,0.00,,,0.00,Meteo,2013-01-09 09:16:00,
2013-01-09 03:21:00,32.0,25.0,29.71,SSW,202,6.0,10.0,74,0.00,,,0.00,Meteo,2013-01-09 09:21:00,
2013-01-09 03:26:00,32.0,25.0,29.71,SSW,204,6.0,11.0,74,0.00,,,0.00,Meteo,2013-01-09 09:26:00,
2013-01-09 03:31:00,32.0,25.0,29.71,SSW,192,6.0,10.0,74,0.00,,,0.00,Meteo,2013-01-09 09:31:00,
2013-01-09 03:36:00,32.0,25.0,29.71,SSW,198,9.0,14.0,74,0.00,,,0.00,Meteo,2013-01-09 09:36:00,
2013-01-09 03:41:00,32.0,25.0,29.71,SSW,194,6.0,11.0,74,0.00,,,0.00,Meteo,2013-01-09 09:41:00,
2013-01-09 03:46:00,32.0,25.0,29.71,SSW,206,9.0,17.0,74,0.00,,,0.00,Meteo,2013-01-09 09:46:00,
2013-01-09 03:51:00,32.0,25.0,29.71,SSW,210,5.0,8.0,74,0.00,,,0.00,Meteo,2013-01-09 09:51:00,
2013-01-09 03:56:00,31.0,24.0,29.71,SSW,205,7.0,9.0,74,0.00,,,0.00,Meteo,2013-01-09 09:56:00,
2013-01-09 04:01:00,31.0,24.0,29.71,SSW,204,6.0,10.0,74,0.00,,,0.00,Meteo,2013-01-09 10:01:00,
2013-01-09 04:06:00,31.0,24.0,29.71,SSW,197,5.0,7.0,74,0.00,,,0.00,Meteo,2013-01-09 10:06:00,
2013-01-09 04:11:00,31.0,24.0,29.71,SSW,203,4.0,6.0,74,0.00,,,0.00,Meteo,2013-01-09 10:11:00,
2013-01-09 04:16:00,31.0,24.0,29.71,SW,223,4.0,10.0,75,0.00,,,0.00,Meteo,2013-01-09 10:16:00,
2013-01-09 04:21:00,31.0,24.0,29.71,SSW,197,3.0,7.0,74,0.00,,,0.00,Meteo,2013-01-09 10:21:00,
2013-01-09 04:26:00,31.0,24.0,29.71,SSW,204,7.0,11.0,74,0.00,,,0.00,Meteo,2013-01-09 10:26:00,
2013-01-09 04:32:00,31.0,24.0,29.71,SSW,201,6.0,11.0,74,0.00,,,0.00,Meteo,2013-01-09 10:32:00,
2013-01-09 04:37:00,31.0,24.0,29.71,SSW,211,7.0,12.0,74,0.00,,,0.00,Meteo,2013-01-09 10:37:00,
2013-01-09 04:42:00,31.0,24.0,29.72,SSW,201,5.0,7.0,74,0.00,,,0.00,Meteo,2013-01-09 10:42:00,
2013-01-09 04:47:00,31.0,24.0,29.72,SSW,208,4.0,8.0,75,0.00,,,0.00,Meteo,2013-01-09 10:47:00,
2013-01-09 04:52:00,31.0,24.0,29.71,SSW,200,5.0,8.0,74,0.00,,,0.00,Meteo,2013-01-09 10:52:00,
2013-01-09 04:57:00,31.0,24.0,29.72,SSW,213,6.0,9.0,74,0.00,,,0.00,Meteo,2013-01-09 10:57:00,
2013-01-09 05:02:00,31.0,24.0,29.72,SSW,203,5.0,9.0,74,0.00,,,0.00,Meteo,2013-01-09 11:02:00,
2013-01-09 05:07:00,31.0,23.0,29.71,SSW,201,5.0,12.0,73,0.00,,,0.00,Meteo,2013-01-09 11:07:00,
2013-01-09 05:12:00,31.0,23.0,29.71,SSW,201,6.0,9.0,73,0.00,,,0.00,Meteo,2013-01-09 11:12:00,
2013-01-09 05:18:00,31.0,23.0,29.71,SSW,210,5.0,9.0,73,0.00,,,0.00,Meteo,2013-01-09 11:18:00,
2013-01-09 05:23:00,32.0,24.0,29.71,SSW,212,3.0,5.0,72,0.00,,,0.00,Meteo,2013-01-09 11:23:00,
2013-01-09 05:28:00,32.0,24.0,29.71,SSW,205,6.0,10.0,72,0.00,,,0.00,Meteo,2013-01-09 11:28:00,
2013-01-09 05:33:00,32.0,24.0,29.71,SSW,211,5.0,8.0,71,0.00,,,0.00,Meteo,2013-01-09 11:33:00,
2013-01-09 05:38:00,32.0,24.0,29.71,SSW,202,5.0,10.0,72,0.00,,,0.00,Meteo,2013-01-09 11:38:00,
2013-01-09 05:43:00,32.0,24.0,29.71,SSW,201,5.0,8.0,72,0.00,,,0.00,Meteo,2013-01-09 11:43:00,
2013-01-09 05:48:00,32.0,24.0,29.71,SSW,200,6.0,10.0,72,0.00,,,0.00,Meteo,2013-01-09 11:48:00,
2013-01-09 05:53:00,32.0,24.0,29.71,SSW,212,6.0,10.0,72,0.00,,,0.00,Meteo,2013-01-09 11:53:00,
2013-01-09 05:58:00,32.0,24.0,29.71,SSW,211,10.0,15.0,71,0.00,,,0.00,Meteo,2013-01-09 11:58:00,
2013-01-09 06:03:00,32.0,23.0,29.72,SW,218,7.0,11.0,70,0.00,,,0.00,Meteo,2013-01-09 12:03:00,
2013-01-09 06:08:00,33.0,24.0,29.72,SW,223,6.0,8.0,70,0.00,,,0.00,Meteo,2013-01-09 12:08:00,
2013-01-09 06:13:00,33.0,24.0,29.72,SSW,205,8.0,14.0,70,0.00,,,0.00,Meteo,2013-01-09 12:13:00,
2013-01-09 06:18:00,33.0,24.0,29.72,SSW,207,5.0,9.0,70,0.00,,,0.00,Meteo,2013-01-09 12:18:00,
2013-01-09 06:23:00,33.0,24.0,29.73,SW,217,6.0,9.0,69,0.00,,,0.00,Meteo,2013-01-09 12:23:00,
2013-01-09 06:28:00,33.0,24.0,29.73,SSW,209,9.0,13.0,69,0.00,,,0.00,Meteo,2013-01-09 12:28:00,
2013-01-09 06:33:00,33.0,24.0,29.73,SW,215,8.0,14.0,69,0.00,,,0.00,Meteo,2013-01-09 12:33:00,
2013-01-09 06:38:00,33.0,24.0,29.73,SW,233,3.0,7.0,69,0.00,,,0.00,Meteo,2013-01-09 12:38:00,
2013-01-09 06:43:00,33.0,24.0,29.73,SSW,200,5.0,9.0,69,0.00,,,0.00,Meteo,2013-01-09 12:43:00,
2013-01-09 06:48:00,33.0,24.0,29.74,SSW,213,7.0,11.0,69,0.00,,,0.00,Meteo,2013-01-09 12:48:00,
2013-01-09 06:53:00,33.0,24.0,29.74,SW,217,4.0,7.0,68,0.00,,,0.00,Meteo,2013-01-09 12:53:00,
2013-01-09 06:58:00,33.0,23.0,29.74,WSW,238,5.0,11.0,67,0.00,,,0.00,Meteo,2013-01-09 12:58:00,
2013-01-09 07:03:00,33.0,23.0,29.75,SSW,207,6.0,10.0,67,0.00,,,0.00,Meteo,2013-01-09 13:03:00,
2013-01-09 07:08:00,33.0,23.0,29.75,West,267,7.0,10.0,66,0.00,,,0.00,Meteo,2013-01-09 13:08:00,
2013-01-09 07:13:00,33.0,23.0,29.76,SW,227,5.0,11.0,67,0.00,,,0.00,Meteo,2013-01-09 13:13:00,
2013-01-09 07:18:00,33.0,23.0,29.76,WSW,247,5.0,9.0,67,0.00,,,0.00,Meteo,2013-01-09 13:18:00,
2013-01-09 07:23:00,33.0,23.0,29.77,SW,220,6.0,12.0,66,0.00,,,0.00,Meteo,2013-01-09 13:23:00,
2013-01-09 07:28:00,34.0,23.0,29.77,WSW,252,7.0,19.0,65,0.00,,,0.00,Meteo,2013-01-09 13:28:00,
2013-01-09 07:33:00,34.0,23.0,29.78,SW,214,8.0,18.0,64,0.00,,,0.00,Meteo,2013-01-09 13:33:00,
2013-01-09 07:38:00,34.0,22.0,29.78,SW,228,7.0,14.0,61,0.00,,,0.00,Meteo,2013-01-09 13:38:00,
2013-01-09 07:43:00,34.0,22.0,29.79,WSW,250,12.0,27.0,60,0.00,,,0.00,Meteo,2013-01-09 13:43:00,
2013-01-09 07:48:00,34.0,21.0,29.79,WSW,244,6.0,10.0,59,0.00,,,0.00,Meteo,2013-01-09 13:48:00,
2013-01-09 07:53:00,34.0,21.0,29.80,West,272,4.0,9.0,59,0.00,,,0.00,Meteo,2013-01-09 13:53:00,
2013-01-09 07:58:00,34.0,22.0,29.81,WSW,248,6.0,13.0,60,0.00,,,0.00,Meteo,2013-01-09 13:58:00,
2013-01-09 08:03:00,34.0,22.0,29.81,WSW,243,3.0,7.0,61,0.00,,,0.00,Meteo,2013-01-09 14:03:00,
2013-01-09 08:08:00,34.0,22.0,29.81,SW,228,6.0,11.0,61,0.00,,,0.00,Meteo,2013-01-09 14:08:00,
2013-01-09 08:13:00,33.0,21.0,29.82,WSW,251,4.0,13.0,61,0.00,,,0.00,Meteo,2013-01-09 14:13:00,
2013-01-09 08:18:00,33.0,21.0,29.83,WNW,294,10.0,16.0,60,0.00,,,0.00,Meteo,2013-01-09 14:18:00,
2013-01-09 08:23:00,33.0,21.0,29.83,WNW,289,7.0,15.0,61,0.00,,,0.00,Meteo,2013-01-09 14:23:00,
2013-01-09 08:28:00,33.0,21.0,29.83,WSW,254,7.0,13.0,62,0.00,,,0.00,Meteo,2013-01-09 14:28:00,
2013-01-09 08:33:00,33.0,21.0,29.84,West,264,3.0,7.0,60,0.00,,,0.00,Meteo,2013-01-09 14:33:00,
2013-01-09 08:38:00,33.0,21.0,29.84,West,271,3.0,9.0,62,0.00,,,0.00,Meteo,2013-01-09 14:38:00,
2013-01-09 08:43:00,33.0,21.0,29.85,WSW,254,8.0,16.0,61,0.00,,,0.00,Meteo,2013-01-09 14:43:00,
2013-01-09 08:48:00,33.0,21.0,29.85,WSW,252,5.0,8.0,62,0.00,,,0.00,Meteo,2013-01-09 14:48:00,
2013-01-09 08:53:00,33.0,21.0,29.86,WSW,256,5.0,8.0,61,0.00,,,0.00,Meteo,2013-01-09 14:53:00,
2013-01-09 08:58:00,33.0,21.0,29.86,West,266,7.0,16.0,61,0.00,,,0.00,Meteo,2013-01-09 14:58:00,
2013-01-09 09:03:00,33.0,21.0,29.87,WSW,248,6.0,15.0,60,0.00,,,0.00,Meteo,2013-01-09 15:03:00,
2013-01-09 09:08:00,33.0,21.0,29.87,WSW,256,8.0,12.0,60,0.00,,,0.00,Meteo,2013-01-09 15:08:00,
2013-01-09 09:13:00,33.0,21.0,29.88,West,267,6.0,13.0,60,0.00,,,0.00,Meteo,2013-01-09 15:13:00,
2013-01-09 09:18:00,33.0,21.0,29.88,WNW,283,5.0,13.0,61,0.00,,,0.00,Meteo,2013-01-09 15:18:00,
2013-01-09 09:23:00,32.0,20.0,29.88,WSW,258,4.0,11.0,60,0.00,,,0.00,Meteo,2013-01-09 15:23:00,
2013-01-09 09:28:00,32.0,20.0,29.89,West,259,5.0,10.0,60,0.00,,,0.00,Meteo,2013-01-09 15:28:00,
2013-01-09 09:33:00,32.0,20.0,29.89,SW,228,4.0,10.0,60,0.00,,,0.00,Meteo,2013-01-09 15:33:00,
2013-01-09 09:38:00,32.0,20.0,29.90,West,263,4.0,12.0,61,0.00,,,0.00,Meteo,2013-01-09 15:38:00,
2013-01-09 09:43:00,32.0,20.0,29.90,WSW,237,5.0,11.0,60,0.00,,,0.00,Meteo,2013-01-09 15:43:00,
2013-01-09 09:48:00,32.0,20.0,29.91,WSW,255,4.0,10.0,60,0.00,,,0.00,Meteo,2013-01-09 15:48:00,
2013-01-09 09:53:00,32.0,20.0,29.91,WSW,255,5.0,9.0,60,0.00,,,0.00,Meteo,2013-01-09 15:53:00,
2013-01-09 09:58:00,32.0,20.0,29.92,WNW,291,8.0,16.0,60,0.00,,,0.00,Meteo,2013-01-09 15:58:00,
2013-01-09 10:03:00,32.0,20.0,29.92,WSW,253,8.0,17.0,61,0.00,,,0.00,Meteo,2013-01-09 16:03:00,
2013-01-09 10:08:00,32.0,20.0,29.93,WSW,241,2.0,5.0,61,0.00,,,0.00,Meteo,2013-01-09 16:08:00,
2013-01-09 10:13:00,32.0,20.0,29.93,WSW,247,9.0,16.0,61,0.00,,,0.00,Meteo,2013-01-09 16:13:00,
2013-01-09 10:18:00,32.0,20.0,29.94,WSW,258,6.0,10.0,60,0.00,,,0.00,Meteo,2013-01-09 16:18:00,
2013-01-09 10:23:00,32.0,20.0,29.94,WSW,257,4.0,10.0,60,0.00,,,0.00,Meteo,2013-01-09 16:23:00,
2013-01-09 10:28:00,32.0,20.0,29.94,WSW,252,7.0,12.0,60,0.00,,,0.00,Meteo,2013-01-09 16:28:00,
2013-01-09 10:33:00,33.0,21.0,29.94,WSW,251,4.0,12.0,60,0.00,,,0.00,Meteo,2013-01-09 16:33:00,
2013-01-09 10:38:00,33.0,21.0,29.95,WSW,254,6.0,10.0,60,0.00,,,0.00,Meteo,2013-01-09 16:38:00,
2013-01-09 10:43:00,33.0,21.0,29.95,WSW,241,6.0,13.0,60,0.00,,,0.00,Meteo,2013-01-09 16:43:00,
2013-01-09 10:48:00,33.0,20.0,29.95,West,275,4.0,9.0,59,0.00,,,0.00,Meteo,2013-01-09 16:48:00,
2013-01-09 10:53:00,33.0,20.0,29.96,West,281,4.0,6.0,59,0.00,,,0.00,Meteo,2013-01-09 16:53:00,
2013-01-09 10:58:00,33.0,20.0,29.96,West,266,5.0,13.0,59,0.00,,,0.00,Meteo,2013-01-09 16:58:00,
2013-01-09 11:03:00,33.0,20.0,29.96,West,259,7.0,14.0,58,0.00,,,0.00,Meteo,2013-01-09 17:03:00,
2013-01-09 11:08:00,33.0,21.0,29.96,SW,234,7.0,14.0,60,0.00,,,0.00,Meteo,2013-01-09 17:08:00,
2013-01-09 11:13:00,33.0,20.0,29.96,WSW,248,4.0,9.0,58,0.00,,,0.00,Meteo,2013-01-09 17:13:00,
2013-01-09 11:18:00,34.0,20.0,29.97,West,260,4.0,11.0,57,0.00,,,0.00,Meteo,2013-01-09 17:18:00,
2013-01-09 11:23:00,34.0,21.0,29.97,WNW,288,4.0,12.0,58,0.00,,,0.00,Meteo,2013-01-09 17:23:00,
2013-01-09 11:28:00,34.0,21.0,29.97,West,262,5.0,12.0,58,0.00,,,0.00,Meteo,2013-01-09 17:28:00,
2013-01-09 11:33:00,34.0,21.0,29.97,West,259,3.0,5.0,58,0.00,,,0.00,Meteo,2013-01-09 17:33:00,
2013-01-09 11:38:00,34.0,21.0,29.97,WNW,283,2.0,5.0,58,0.00,,,0.00,Meteo,2013-01-09 17:38:00,
2013-01-09 11:43:00,34.0,21.0,29.97,West,280,4.0,8.0,58,0.00,,,0.00,Meteo,2013-01-09 17:43:00,
2013-01-09 11:48:00,34.0,21.0,29.98,WNW,288,6.0,10.0,59,0.00,,,0.00,Meteo,2013-01-09 17:48:00,
2013-01-09 11:53:00,34.0,21.0,29.98,West,267,3.0,4.0,59,0.00,,,0.00,Meteo,2013-01-09 17:53:00,
2013-01-09 11:58:00,34.0,21.0,29.99,SW,235,4.0,7.0,59,0.00,,,0.00,Meteo,2013-01-09 17:58:00,
2013-01-09 12:03:00,34.0,21.0,29.99,SW,236,5.0,9.0,58,0.00,,,0.00,Meteo,2013-01-09 18:03:00,
2013-01-09 12:08:00,34.0,21.0,29.99,West,264,5.0,14.0,59,0.00,,,0.00,Meteo,2013-01-09 18:08:00,
2013-01-09 12:13:00,34.0,21.0,29.99,West,268,4.0,7.0,59,0.00,,,0.00,Meteo,2013-01-09 18:13:00,
2013-01-09 12:18:00,33.0,20.0,30.00,WNW,287,4.0,9.0,59,0.00,,,0.00,Meteo,2013-01-09 18:18:00,
2013-01-09 12:23:00,34.0,22.0,30.00,West,270,3.0,5.0,60,0.00,,,0.00,Meteo,2013-01-09 18:23:00,
2013-01-09 12:28:00,34.0,21.0,30.00,WSW,246,2.0,6.0,59,0.00,,,0.00,Meteo,2013-01-09 18:28:00,
2013-01-09 12:33:00,34.0,21.0,30.00,WSW,255,4.0,6.0,58,0.00,,,0.00,Meteo,2013-01-09 18:33:00,
2013-01-09 12:38:00,34.0,21.0,30.00,WNW,282,2.0,4.0,59,0.00,,,0.00,Meteo,2013-01-09 18:38:00,
2013-01-09 12:42:00,34.0,21.0,30.00,WSW,245,3.0,6.0,59,0.00,,,0.00,Meteo,2013-01-09 18:42:00,
2013-01-09 12:43:00,34.0,21.0,30.00,WNW,282,3.0,6.0,59,0.00,,,0.00,Meteo,2013-01-09 18:43:00,
2013-01-09 12:44:00,34.0,21.0,30.00,WSW,253,5.0,8.0,58,0.00,,,0.00,Meteo,2013-01-09 18:44:00,
2013-01-09 12:46:00,34.0,21.0,30.00,West,264,3.0,5.0,59,0.00,,,0.00,Meteo,2013-01-09 18:46:00,
2013-01-09 12:47:00,34.0,21.0,30.00,West,264,4.0,6.0,59,0.00,,,0.00,Meteo,2013-01-09 18:47:00,
2013-01-09 12:49:00,34.0,21.0,30.00,West,279,5.0,9.0,59,0.00,,,0.00,Meteo,2013-01-09 18:49:00,
2013-01-09 12:50:00,34.0,21.0,30.00,West,271,3.0,5.0,59,0.00,,,0.00,Meteo,2013-01-09 18:50:00,
2013-01-09 12:51:00,34.0,21.0,30.00,WNW,288,3.0,6.0,59,0.00,,,0.00,Meteo,2013-01-09 18:51:00,
2013-01-09 12:56:00,34.0,21.0,30.01,WSW,258,4.0,6.0,58,0.00,,,0.00,Meteo,2013-01-09 18:56:00,
2013-01-09 13:01:00,34.0,21.0,30.01,West,263,3.0,6.0,58,0.00,,,0.00,Meteo,2013-01-09 19:01:00,
2013-01-09 13:06:00,34.0,21.0,30.02,WSW,252,3.0,6.0,59,0.00,,,0.00,Meteo,2013-01-09 19:06:00,
2013-01-09 13:10:00,34.0,21.0,30.02,West,259,4.0,9.0,58,0.00,,,0.00,Meteo,2013-01-09 19:10:00,
2013-01-09 13:16:00,34.0,20.0,30.03,West,279,4.0,9.0,57,0.00,,,0.00,Meteo,2013-01-09 19:16:00,
2013-01-09 13:21:00,34.0,20.0,30.04,WNW,286,5.0,8.0,57,0.00,,,0.00,Meteo,2013-01-09 19:21:00,
2013-01-09 13:26:00,34.0,20.0,30.04,West,261,7.0,13.0,57,0.00,,,0.00,Meteo,2013-01-09 19:26:00,
2013-01-09 13:31:00,34.0,21.0,30.05,WSW,245,5.0,8.0,58,0.00,,,0.00,Meteo,2013-01-09 19:31:00,
2013-01-09 13:37:00,34.0,20.0,30.05,SSW,210,5.0,8.0,57,0.00,,,0.00,Meteo,2013-01-09 19:37:00,
2013-01-09 13:42:00,34.0,20.0,30.06,SW,218,4.0,5.0,57,0.00,,,0.00,Meteo,2013-01-09 19:42:00,
2013-01-09 13:48:00,35.0,20.0,30.07,SW,236,3.0,5.0,55,0.00,,,0.00,Meteo,2013-01-09 19:48:00,
2013-01-09 13:53:00,35.0,21.0,30.08,SW,224,2.0,4.0,56,0.00,,,0.00,Meteo,2013-01-09 19:53:00,
2013-01-09 13:58:00,35.0,20.0,30.08,SW,234,3.0,6.0,55,0.00,,,0.00,Meteo,2013-01-09 19:58:00,
2013-01-09 14:03:00,35.0,20.0,30.08,WSW,241,6.0,8.0,54,0.00,,,0.00,Meteo,2013-01-09 20:03:00,
2013-01-09 14:08:00,35.0,20.0,30.08,WSW,250,3.0,6.0,55,0.00,,,0.00,Meteo,2013-01-09 20:08:00,
2013-01-09 14:13:00,35.0,20.0,30.08,WSW,258,4.0,6.0,54,0.00,,,0.00,Meteo,2013-01-09 20:13:00,
2013-01-09 14:18:00,35.0,20.0,30.09,West,262,3.0,6.0,54,0.00,,,0.00,Meteo,2013-01-09 20:18:00,
2013-01-09 14:23:00,35.0,20.0,30.10,WSW,254,2.0,4.0,54,0.00,,,0.00,Meteo,2013-01-09 20:23:00,
2013-01-09 14:28:00,35.0,20.0,30.10,West,262,4.0,6.0,54,0.00,,,0.00,Meteo,2013-01-09 20:28:00,
2013-01-09 14:33:00,35.0,20.0,30.10,SW,232,4.0,8.0,55,0.00,,,0.00,Meteo,2013-01-09 20:33:00,
2013-01-09 14:38:00,35.0,20.0,30.11,SW,225,4.0,6.0,54,0.00,,,0.00,Meteo,2013-01-09 20:38:00,
2013-01-09 14:43:00,36.0,21.0,30.11,WSW,237,4.0,8.0,53,0.00,,,0.00,Meteo,2013-01-09 20:43:00,
2013-01-09 14:48:00,36.0,21.0,30.12,SW,223,4.0,11.0,55,0.00,,,0.00,Meteo,2013-01-09 20:48:00,
2013-01-09 14:53:00,36.0,21.0,30.12,SW,229,4.0,6.0,54,0.00,,,0.00,Meteo,2013-01-09 20:53:00,
2013-01-09 14:58:00,36.0,21.0,30.13,SW,219,4.0,7.0,54,0.00,,,0.00,Meteo,2013-01-09 20:58:00,
2013-01-09 15:03:00,36.0,21.0,30.13,SSW,198,7.0,12.0,53,0.00,,,0.00,Meteo,2013-01-09 21:03:00,
2013-01-09 15:08:00,36.0,21.0,30.13,SW,228,5.0,10.0,54,0.00,,,0.00,Meteo,2013-01-09 21:08:00,
2013-01-09 15:13:00,36.0,20.0,30.14,SW,228,5.0,9.0,52,0.00,,,0.00,Meteo,2013-01-09 21:13:00,
2013-01-09 15:18:00,36.0,21.0,30.14,SW,215,7.0,11.0,53,0.00,,,0.00,Meteo,2013-01-09 21:18:00,
2013-01-09 15:23:00,36.0,21.0,30.14,SSW,201,5.0,8.0,53,0.00,,,0.00,Meteo,2013-01-09 21:23:00,
2013-01-09 15:28:00,36.0,20.0,30.14,SW,235,2.0,4.0,52,0.00,,,0.00,Meteo,2013-01-09 21:28:00,
2013-01-09 15:33:00,36.0,21.0,30.14,SW,224,3.0,6.0,53,0.00,,,0.00,Meteo,2013-01-09 21:33:00,
2013-01-09 15:38:00,36.0,20.0,30.15,SW,226,3.0,5.0,52,0.00,,,0.00,Meteo,2013-01-09 21:38:00,
2013-01-09 15:43:00,36.0,20.0,30.16,SW,231,4.0,7.0,52,0.00,,,0.00,Meteo,2013-01-09 21:43:00,
2013-01-09 15:48:00,36.0,21.0,30.23,SW,216,2.0,3.0,53,0.00,,,0.00,Meteo,2013-01-09 21:48:00,
2013-01-09 15:53:00,36.0,21.0,30.16,SW,215,3.0,6.0,53,0.00,,,0.00,Meteo,2013-01-09 21:53:00,
2013-01-09 15:58:00,36.0,21.0,30.17,SSW,204,3.0,5.0,53,0.00,,,0.00,Meteo,2013-01-09 21:58:00,
2013-01-09 16:03:00,35.0,20.0,30.17,SSW,201,2.0,4.0,54,0.00,,,0.00,Meteo,2013-01-09 22:03:00,
2013-01-09 16:08:00,35.0,20.0,30.18,SW,221,2.0,4.0,54,0.00,,,0.00,Meteo,2013-01-09 22:08:00,
2013-01-09 16:13:00,35.0,20.0,30.18,SSW,208,2.0,4.0,54,0.00,,,0.00,Meteo,2013-01-09 22:13:00,
2013-01-09 16:18:00,34.0,19.0,30.19,SW,220,5.0,13.0,54,0.00,,,0.00,Meteo,2013-01-09 22:18:00,
2013-01-09 16:23:00,34.0,20.0,30.19,SSW,212,3.0,6.0,55,0.00,,,0.00,Meteo,2013-01-09 22:23:00,
2013-01-09 16:28:00,34.0,20.0,30.19,SSW,192,4.0,5.0,55,0.00,,,0.00,Meteo,2013-01-09 22:28:00,
2013-01-09 16:33:00,34.0,20.0,30.19,SSW,204,5.0,9.0,56,0.00,,,0.00,Meteo,2013-01-09 22:33:00,
2013-01-09 16:38:00,33.0,19.0,30.19,SW,222,4.0,5.0,56,0.00,,,0.00,Meteo,2013-01-09 22:38:00,
2013-01-09 16:43:00,33.0,19.0,30.19,SW,233,4.0,7.0,56,0.00,,,0.00,Meteo,2013-01-09 22:43:00,
2013-01-09 16:48:00,33.0,19.0,30.20,SSW,208,3.0,7.0,57,0.00,,,0.00,Meteo,2013-01-09 22:48:00,
2013-01-09 16:53:00,33.0,19.0,30.20,SSW,212,3.0,5.0,57,0.00,,,0.00,Meteo,2013-01-09 22:53:00,
2013-01-09 16:58:00,33.0,19.0,30.20,SW,220,2.0,4.0,57,0.00,,,0.00,Meteo,2013-01-09 22:58:00,
2013-01-09 17:03:00,33.0,19.0,30.21,SW,217,2.0,3.0,57,0.00,,,0.00,Meteo,2013-01-09 23:03:00,
2013-01-09 17:08:00,32.0,19.0,30.21,SSW,201,2.0,4.0,57,0.00,,,0.00,Meteo,2013-01-09 23:08:00,
2013-01-09 17:13:00,32.0,19.0,30.21,SSW,210,2.0,5.0,58,0.00,,,0.00,Meteo,2013-01-09 23:13:00,
2013-01-09 17:18:00,32.0,19.0,30.22,SSW,213,3.0,9.0,58,0.00,,,0.00,Meteo,2013-01-09 23:18:00,
2013-01-09 17:23:00,31.0,18.0,30.22,SW,216,4.0,6.0,59,0.00,,,0.00,Meteo,2013-01-09 23:23:00,
2013-01-09 17:28:00,31.0,18.0,30.22,SSW,206,4.0,7.0,59,0.00,,,0.00,Meteo,2013-01-09 23:28:00,
2013-01-09 17:33:00,31.0,18.0,30.22,SSW,213,1.0,3.0,59,0.00,,,0.00,Meteo,2013-01-09 23:33:00,
2013-01-09 17:38:00,31.0,19.0,30.22,WSW,237,3.0,7.0,60,0.00,,,0.00,Meteo,2013-01-09 23:38:00,
2013-01-09 17:43:00,31.0,18.0,30.23,SW,215,4.0,5.0,59,0.00,,,0.00,Meteo,2013-01-09 23:43:00,
2013-01-09 17:48:00,31.0,18.0,30.23,SSW,211,3.0,4.0,59,0.00,,,0.00,Meteo,2013-01-09 23:48:00,
2013-01-09 17:53:00,31.0,19.0,30.23,SSW,197,4.0,7.0,60,0.00,,,0.00,Meteo,2013-01-09 23:53:00,
2013-01-09 17:58:00,31.0,19.0,30.23,SSW,205,3.0,8.0,60,0.00,,,0.00,Meteo,2013-01-09 23:58:00,
2013-01-09 18:03:00,31.0,19.0,30.23,SSW,200,5.0,9.0,60,0.00,,,0.00,Meteo,2013-01-10 00:03:00,
2013-01-09 18:08:00,31.0,18.0,30.24,SSW,211,4.0,8.0,59,0.00,,,0.00,Meteo,2013-01-10 00:08:00,
2013-01-09 18:13:00,31.0,18.0,30.24,SW,231,1.0,3.0,59,0.00,,,0.00,Meteo,2013-01-10 00:13:00,
2013-01-09 18:18:00,30.0,17.0,30.24,SW,223,2.0,3.0,59,0.00,,,0.00,Meteo,2013-01-10 00:18:00,
2013-01-09 18:23:00,30.0,17.0,30.24,SW,226,2.0,3.0,59,0.00,,,0.00,Meteo,2013-01-10 00:23:00,
2013-01-09 18:28:00,30.0,17.0,30.24,SW,215,1.0,3.0,58,0.00,,,0.00,Meteo,2013-01-10 00:28:00,
2013-01-09 18:33:00,30.0,17.0,30.24,SW,214,1.0,5.0,59,0.00,,,0.00,Meteo,2013-01-10 00:33:00,
2013-01-09 18:38:00,30.0,17.0,30.24,SSW,208,0.0,1.0,59,0.00,,,0.00,Meteo,2013-01-10 00:38:00,
2013-01-09 18:43:00,29.0,17.0,30.24,SSW,209,1.0,3.0,60,0.00,,,0.00,Meteo,2013-01-10 00:43:00,
2013-01-09 18:48:00,29.0,17.0,30.24,SW,225,1.0,2.0,60,0.00,,,0.00,Meteo,2013-01-10 00:48:00,
2013-01-09 18:53:00,29.0,17.0,30.24,SSW,202,1.0,2.0,60,0.00,,,0.00,Meteo,2013-01-10 00:53:00,
2013-01-09 18:58:00,28.0,16.0,30.25,SSW,207,1.0,2.0,61,0.00,,,0.00,Meteo,2013-01-10 00:58:00,
2013-01-09 19:05:00,28.0,17.0,30.25,North,0,0.0,0.0,62,0.00,,,0.00,Meteo,2013-01-10 01:05:00,
2013-01-09 19:10:00,28.0,17.0,30.25,South,179,1.0,1.0,62,0.00,,,0.00,Meteo,2013-01-10 01:10:00,
2013-01-09 19:15:00,28.0,17.0,30.25,SSW,199,1.0,1.0,63,0.00,,,0.00,Meteo,2013-01-10 01:15:00,
2013-01-09 19:20:00,27.0,16.0,30.25,SSW,206,3.0,5.0,64,0.00,,,0.00,Meteo,2013-01-10 01:20:00,
2013-01-09 19:26:00,27.0,17.0,30.25,SSW,207,4.0,5.0,65,0.00,,,0.00,Meteo,2013-01-10 01:26:00,
2013-01-09 19:31:00,27.0,17.0,30.25,SSW,211,3.0,4.0,65,0.00,,,0.00,Meteo,2013-01-10 01:31:00,
2013-01-09 19:36:00,27.0,17.0,30.26,SW,216,1.0,2.0,65,0.00,,,0.00,Meteo,2013-01-10 01:36:00,
2013-01-09 19:41:00,27.0,17.0,30.26,SSW,206,2.0,3.0,65,0.00,,,0.00,Meteo,2013-01-10 01:41:00,
2013-01-09 19:47:00,27.0,17.0,30.26,SSW,205,2.0,5.0,66,0.00,,,0.00,Meteo,2013-01-10 01:47:00,
2013-01-09 19:52:00,27.0,17.0,30.25,SW,224,2.0,3.0,66,0.00,,,0.00,Meteo,2013-01-10 01:52:00,
2013-01-09 19:57:00,27.0,17.0,30.25,SW,214,1.0,2.0,66,0.00,,,0.00,Meteo,2013-01-10 01:57:00,
2013-01-09 20:02:00,27.0,17.0,30.25,SW,219,2.0,4.0,66,0.00,,,0.00,Meteo,2013-01-10 02:02:00,
2013-01-09 20:07:00,27.0,17.0,30.25,SSW,198,2.0,4.0,66,0.00,,,0.00,Meteo,2013-01-10 02:07:00,
2013-01-09 20:12:00,27.0,18.0,30.25,South,184,2.0,4.0,67,0.00,,,0.00,Meteo,2013-01-10 02:12:00,
2013-01-09 20:17:00,27.0,17.0,30.25,SSW,199,2.0,4.0,66,0.00,,,0.00,Meteo,2013-01-10 02:17:00,
2013-01-09 20:22:00,27.0,18.0,30.26,South,184,4.0,6.0,67,0.00,,,0.00,Meteo,2013-01-10 02:22:00,
2013-01-09 20:27:00,27.0,18.0,30.26,South,186,4.0,7.0,67,0.00,,,0.00,Meteo,2013-01-10 02:27:00,
2013-01-09 20:32:00,27.0,18.0,30.27,SSW,205,1.0,3.0,67,0.00,,,0.00,Meteo,2013-01-10 02:32:00,
2013-01-09 20:37:00,27.0,18.0,30.27,South,175,2.0,4.0,67,0.00,,,0.00,Meteo,2013-01-10 02:37:00,
2013-01-09 20:42:00,26.0,17.0,30.27,South,178,1.0,3.0,67,0.00,,,0.00,Meteo,2013-01-10 02:42:00,
2013-01-09 20:47:00,26.0,17.0,30.28,SSW,198,2.0,4.0,67,0.00,,,0.00,Meteo,2013-01-10 02:47:00,
2013-01-09 20:52:00,26.0,17.0,30.28,SW,222,1.0,2.0,68,0.00,,,0.00,Meteo,2013-01-10 02:52:00,
2013-01-09 20:57:00,26.0,17.0,30.28,South,181,1.0,3.0,67,0.00,,,0.00,Meteo,2013-01-10 02:57:00,
2013-01-09 21:02:00,26.0,17.0,30.28,SSW,210,1.0,3.0,67,0.00,,,0.00,Meteo,2013-01-10 03:02:00,
2013-01-09 21:07:00,26.0,17.0,30.28,SSW,206,1.0,2.0,67,0.00,,,0.00,Meteo,2013-01-10 03:07:00,
2013-01-09 21:12:00,26.0,17.0,30.28,SSW,210,1.0,2.0,67,0.00,,,0.00,Meteo,2013-01-10 03:12:00,
2013-01-09 21:17:00,26.0,17.0,30.28,SSW,212,0.0,1.0,67,0.00,,,0.00,Meteo,2013-01-10 03:17:00,
2013-01-09 21:22:00,26.0,17.0,30.27,North,0,0.0,0.0,67,0.00,,,0.00,Meteo,2013-01-10 03:22:00,
2013-01-09 21:27:00,26.0,17.0,30.29,SSW,212,0.0,1.0,67,0.00,,,0.00,Meteo,2013-01-10 03:27:00,
2013-01-09 21:32:00,25.0,16.0,30.28,North,0,0.0,0.0,67,0.00,,,0.00,Meteo,2013-01-10 03:32:00,
2013-01-09 21:37:00,25.0,16.0,30.28,North,0,0.0,0.0,68,0.00,,,0.00,Meteo,2013-01-10 03:37:00,
2013-01-09 21:42:00,25.0,16.0,30.27,North,0,0.0,0.0,68,0.00,,,0.00,Meteo,2013-01-10 03:42:00,
2013-01-09 21:47:00,25.0,16.0,30.28,North,0,0.0,0.0,68,0.00,,,0.00,Meteo,2013-01-10 03:47:00,
2013-01-09 21:52:00,25.0,16.0,30.28,North,0,0.0,0.0,69,0.00,,,0.00,Meteo,2013-01-10 03:52:00,
2013-01-09 21:57:00,24.0,15.0,30.28,North,0,0.0,0.0,69,0.00,,,0.00,Meteo,2013-01-10 03:57:00,
2013-01-09 22:02:00,24.0,15.0,30.28,North,0,0.0,0.0,69,0.00,,,0.00,Meteo,2013-01-10 04:02:00,
2013-01-09 22:07:00,24.0,15.0,30.27,North,0,0.0,0.0,69,0.00,,,0.00,Meteo,2013-01-10 04:07:00,
2013-01-09 22:12:00,24.0,16.0,30.27,SSW,211,1.0,2.0,70,0.00,,,0.00,Meteo,2013-01-10 04:12:00,
2013-01-09 22:17:00,24.0,16.0,30.27,North,0,0.0,0.0,71,0.00,,,0.00,Meteo,2013-01-10 04:17:00,
2013-01-09 22:22:00,23.0,15.0,30.28,North,0,0.0,0.0,71,0.00,,,0.00,Meteo,2013-01-10 04:22:00,
2013-01-09 22:27:00,23.0,15.0,30.28,North,0,0.0,0.0,71,0.00,,,0.00,Meteo,2013-01-10 04:27:00,
2013-01-09 22:32:00,23.0,15.0,30.28,SSW,204,0.0,1.0,71,0.00,,,0.00,Meteo,2013-01-10 04:32:00,
2013-01-09 22:37:00,23.0,15.0,30.28,North,0,0.0,0.0,72,0.00,,,0.00,Meteo,2013-01-10 04:37:00,
2013-01-09 22:42:00,23.0,15.0,30.28,SSW,200,0.0,1.0,72,0.00,,,0.00,Meteo,2013-01-10 04:42:00,
2013-01-09 22:47:00,23.0,15.0,30.26,ENE,78,3.0,5.0,72,0.00,,,0.00,Meteo,2013-01-10 04:47:00,
2013-01-09 22:52:00,23.0,15.0,30.27,North,0,0.0,0.0,72,0.00,,,0.00,Meteo,2013-01-10 04:52:00,
2013-01-09 22:57:00,23.0,15.0,30.27,North,0,0.0,0.0,72,0.00,,,0.00,Meteo,2013-01-10 04:57:00,
2013-01-09 23:00:00,23.0,15.0,30.26,North,0,0.0,0.0,72,0.00,,,0.00,Meteo,2013-01-10 05:00:00,
2013-01-09 23:01:00,23.0,16.0,30.26,North,0,0.0,0.0,73,0.00,,,0.00,Meteo,2013-01-10 05:01:00,
2013-01-09 23:03:00,23.0,16.0,30.27,North,0,0.0,0.0,73,0.00,,,0.00,Meteo,2013-01-10 05:03:00,
2013-01-09 23:04:00,23.0,16.0,30.26,North,0,0.0,0.0,73,0.00,,,0.00,Meteo,2013-01-10 05:04:00,
2013-01-09 23:09:00,23.0,16.0,30.26,ESE,105,1.0,2.0,73,0.00,,,0.00,Meteo,2013-01-10 05:09:00,
2013-01-09 23:14:00,23.0,16.0,30.26,North,0,0.0,0.0,73,0.00,,,0.00,Meteo,2013-01-10 05:14:00,
2013-01-09 23:19:00,22.0,14.0,30.26,North,0,0.0,0.0,72,0.00,,,0.00,Meteo,2013-01-10 05:19:00,
2013-01-09 23:24:00,22.0,14.0,30.25,North,0,0.0,0.0,72,0.00,,,0.00,Meteo,2013-01-10 05:24:00,
2013-01-09 23:29:00,22.0,15.0,30.25,North,0,0.0,0.0,73,0.00,,,0.00,Meteo,2013-01-10 05:29:00,
2013-01-09 23:34:00,22.0,15.0,30.25,ESE,107,0.0,1.0,73,0.00,,,0.00,Meteo,2013-01-10 05:34:00,
2013-01-09 23:39:00,22.0,15.0,30.25,North,0,0.0,0.0,73,0.00,,,0.00,Meteo,2013-01-10 05:39:00,
2013-01-09 23:44:00,22.0,15.0,30.26,North,0,0.0,0.0,73,0.00,,,0.00,Meteo,2013-01-10 05:44:00,
2013-01-09 23:49:00,21.0,14.0,30.26,SE,132,1.0,2.0,73,0.00,,,0.00,Meteo,2013-01-10 05:49:00,
2013-01-09 23:54:00,21.0,14.0,30.27,SSE,152,0.0,1.0,74,0.00,,,0.00,Meteo,2013-01-10 05:54:00,
2013-01-09 23:59:00,21.0,14.0,30.26,North,0,0.0,0.0,74,0.00,,,0.00,Meteo,2013-01-10 05:59:00,